Time;durP1;ratioP1;P1;durP2;ratioP2;P2;SDS_P1;SDS_P2;PMS_P1;PMS_P2;Temp;Humidity;BMP_temperature;BMP_pressure;BME280_temperature;BME280_humidity;BME280_pressure;Samples;Min_cycle;Max_cycle;Signal;HPM_P1;HPM_P2
2021/09/26 00:02:12;;;;;;;1.40;1.40;;;25.50;54.50;;;;;;5059032;28;20051;-49
2021/09/26 00:04:39;;;;;;;1.30;1.23;;;25.50;54.50;;;;;;5055604;28;20127;-52
2021/09/26 00:07:07;;;;;;;2.35;1.42;;;25.50;54.60;;;;;;5048893;28;20060;-49
2021/09/26 00:09:35;;;;;;;1.42;1.42;;;25.50;55.10;;;;;;5064193;28;20117;-49
2021/09/26 00:12:03;;;;;;;2.28;1.65;;;25.50;54.50;;;;;;5063052;28;20056;-52
2021/09/26 00:14:30;;;;;;;1.58;1.48;;;25.50;54.60;;;;;;5061370;28;20381;-50
2021/09/26 00:16:58;;;;;;;0.80;0.80;;;25.50;54.60;;;;;;5062267;28;20041;-51
2021/09/26 00:19:25;;;;;;;2.50;1.20;;;25.50;54.60;;;;;;5064907;28;20421;-49
2021/09/26 00:21:52;;;;;;;1.55;1.35;;;25.50;54.60;;;;;;5050471;28;20099;-53
2021/09/26 00:24:25;;;;;;;1.15;0.88;;;25.50;54.70;;;;;;5065099;28;20037;-52
2021/09/26 00:26:53;;;;;;;1.60;0.95;;;25.50;54.60;;;;;;5054520;28;20045;-50
2021/09/26 00:29:20;;;;;;;1.08;1.00;;;25.40;54.60;;;;;;5051766;28;20398;-52
2021/09/26 00:31:47;;;;;;;1.75;1.65;;;25.40;54.60;;;;;;5061417;28;20051;-53
2021/09/26 00:34:14;;;;;;;0.88;0.88;;;25.40;54.70;;;;;;5052220;28;20033;-51
2021/09/26 00:36:41;;;;;;;1.83;1.00;;;25.40;54.70;;;;;;5050084;28;20045;-50
2021/09/26 00:39:08;;;;;;;0.85;0.85;;;25.40;54.70;;;;;;5051270;28;20564;-52
2021/09/26 00:41:37;;;;;;;1.45;1.08;;;25.40;54.70;;;;;;5067729;28;20098;-51
2021/09/26 00:44:05;;;;;;;0.60;0.57;;;25.40;54.70;;;;;;5059582;28;20123;-52
2021/09/26 00:46:32;;;;;;;0.88;0.85;;;25.40;54.70;;;;;;5059801;28;20040;-52
2021/09/26 00:48:59;;;;;;;0.70;0.70;;;25.40;54.70;;;;;;5049035;28;20532;-49
2021/09/26 00:51:26;;;;;;;2.13;1.13;;;25.40;54.70;;;;;;5053835;28;20048;-49
2021/09/26 00:53:53;;;;;;;2.50;1.42;;;25.40;54.70;;;;;;5053420;28;20168;-50
2021/09/26 00:56:21;;;;;;;1.40;1.27;;;25.40;54.70;;;;;;5058343;28;20041;-51
2021/09/26 00:58:49;;;;;;;0.90;0.90;;;25.30;54.70;;;;;;5051649;28;20047;-51
2021/09/26 01:01:18;;;;;;;1.35;0.73;;;25.30;54.70;;;;;;5050225;28;20044;-50
2021/09/26 01:03:45;;;;;;;1.08;1.08;;;25.30;54.70;;;;;;5050945;28;20052;-51
2021/09/26 01:06:23;;;;;;;0.98;0.98;;;25.30;54.70;;;;;;5054811;28;20045;-49
2021/09/26 01:09:02;;;;;;;0.85;0.85;;;25.30;54.70;;;;;;5052845;28;20049;-48
2021/09/26 01:11:38;;;;;;;0.98;0.80;;;25.30;54.70;;;;;;5053686;28;20052;-49
2021/09/26 01:14:13;;;;;;;1.02;0.80;;;25.30;54.70;;;;;;5053028;28;20076;-51
2021/09/26 01:16:57;;;;;;;1.05;0.88;;;25.30;54.70;;;;;;5059024;28;20573;-53
2021/09/26 01:19:51;;;;;;;1.00;1.00;;;25.30;54.70;;;;;;5051109;28;20068;-50
2021/09/26 01:22:28;;;;;;;1.80;1.48;;;25.30;54.80;;;;;;5022177;28;20045;-51
2021/09/26 01:25:08;;;;;;;0.77;0.77;;;25.30;54.80;;;;;;5010410;28;20045;-48
2021/09/26 01:28:08;;;;;;;1.55;0.55;;;25.30;54.80;;;;;;5006656;28;20112;-52
2021/09/26 01:30:45;;;;;;;1.15;0.90;;;25.30;54.80;;;;;;5006664;28;20046;-49
2021/09/26 01:33:20;;;;;;;1.15;0.70;;;25.30;54.80;;;;;;5009912;28;20060;-51
2021/09/26 01:35:57;;;;;;;2.08;0.60;;;25.30;54.80;;;;;;5008684;28;20156;-48
2021/09/26 01:38:33;;;;;;;1.55;0.80;;;25.30;54.90;;;;;;5009546;28;20856;-48
2021/09/26 01:41:04;;;;;;;0.85;0.85;;;25.30;54.90;;;;;;5008691;28;20050;-50
2021/09/26 01:43:36;;;;;;;0.75;0.75;;;25.30;54.80;;;;;;5008225;28;20457;-49
2021/09/26 01:46:08;;;;;;;1.00;0.95;;;25.30;54.80;;;;;;5016301;28;20048;-49
2021/09/26 01:48:41;;;;;;;0.68;0.68;;;25.30;55.40;;;;;;5005837;28;20046;-49
2021/09/26 01:51:10;;;;;;;0.63;0.63;;;25.30;54.80;;;;;;5020047;28;20057;-50
2021/09/26 01:53:41;;;;;;;0.50;0.50;;;25.30;54.80;;;;;;5010782;28;20129;-49
2021/09/26 01:56:11;;;;;;;1.70;0.82;;;25.30;54.80;;;;;;5009071;28;20056;-51
2021/09/26 01:58:39;;;;;;;0.95;0.47;;;25.30;54.80;;;;;;5014750;28;20049;-48
2021/09/26 02:01:08;;;;;;;0.65;0.65;;;25.30;54.80;;;;;;5065698;28;20048;-51
2021/09/26 02:03:35;;;;;;;0.68;0.68;;;25.30;54.80;;;;;;5046815;28;20079;-51
2021/09/26 02:06:04;;;;;;;0.70;0.70;;;25.20;54.70;;;;;;5049935;28;20457;-52
2021/09/26 02:08:31;;;;;;;0.55;0.55;;;25.30;54.80;;;;;;5055620;28;20104;-49
2021/09/26 02:10:58;;;;;;;1.05;1.05;;;25.20;54.70;;;;;;5051676;28;20052;-49
2021/09/26 02:13:26;;;;;;;1.38;0.75;;;25.20;54.80;;;;;;5049746;28;20056;-47
2021/09/26 02:15:55;;;;;;;1.85;0.63;;;25.20;54.70;;;;;;5048571;28;20036;-50
2021/09/26 02:18:24;;;;;;;0.50;0.45;;;25.20;54.70;;;;;;5052176;28;20047;-48
2021/09/26 02:20:52;;;;;;;1.05;0.52;;;25.20;54.70;;;;;;5049111;28;20684;-51
2021/09/26 02:23:20;;;;;;;0.60;0.60;;;25.20;54.70;;;;;;5051171;28;20049;-51
2021/09/26 02:25:48;;;;;;;0.60;0.60;;;25.20;54.70;;;;;;5052847;28;20045;-49
2021/09/26 02:28:15;;;;;;;0.45;0.45;;;25.20;54.70;;;;;;5047669;28;20037;-51
2021/09/26 02:30:42;;;;;;;1.17;0.82;;;25.20;54.70;;;;;;5065115;28;20036;-49
2021/09/26 02:33:09;;;;;;;1.85;0.88;;;25.20;54.70;;;;;;5048179;28;20057;-51
2021/09/26 02:35:37;;;;;;;0.40;0.40;;;25.20;54.70;;;;;;5051061;28;20040;-48
2021/09/26 02:38:05;;;;;;;1.00;0.50;;;25.20;54.70;;;;;;5050865;28;20049;-49
2021/09/26 02:40:32;;;;;;;0.73;0.73;;;25.20;54.70;;;;;;5049416;28;20044;-51
2021/09/26 02:43:08;;;;;;;0.88;0.82;;;25.20;54.80;;;;;;5048125;28;20053;-49
2021/09/26 02:45:40;;;;;;;0.93;0.70;;;25.20;54.80;;;;;;5061973;28;20460;-51
2021/09/26 02:48:12;;;;;;;0.75;0.75;;;25.20;54.80;;;;;;5054603;28;20059;-50
2021/09/26 02:50:43;;;;;;;0.30;0.30;;;25.20;54.80;;;;;;5049061;28;20045;-49
2021/09/26 02:53:11;;;;;;;1.08;1.08;;;25.20;54.80;;;;;;5049000;28;20055;-48
2021/09/26 02:55:39;;;;;;;0.75;0.75;;;25.20;54.80;;;;;;5051525;28;20040;-52
2021/09/26 02:58:07;;;;;;;0.60;0.50;;;25.10;54.70;;;;;;5049381;28;20060;-51
2021/09/26 03:00:36;;;;;;;0.85;0.35;;;25.10;54.80;;;;;;5064689;28;20044;-51
2021/09/26 03:03:08;;;;;;;0.63;0.63;;;25.20;54.80;;;;;;5052037;28;20045;-49
2021/09/26 03:05:36;;;;;;;0.60;0.45;;;25.10;54.70;;;;;;5056667;28;20076;-49
2021/09/26 03:08:05;;;;;;;0.57;0.50;;;25.10;54.80;;;;;;5048911;28;20041;-51
2021/09/26 03:10:32;;;;;;;0.70;0.70;;;25.10;54.80;;;;;;5053804;28;20048;-50
2021/09/26 03:12:59;;;;;;;2.53;0.68;;;25.10;54.80;;;;;;5046953;28;20818;-51
2021/09/26 03:15:26;;;;;;;0.65;0.40;;;25.10;54.80;;;;;;5065431;28;20044;-49
2021/09/26 03:17:53;;;;;;;0.98;0.98;;;25.10;54.80;;;;;;5055030;28;20086;-49
2021/09/26 03:20:21;;;;;;;0.63;0.63;;;25.10;54.80;;;;;;5054850;28;20390;-50
2021/09/26 03:22:49;;;;;;;0.77;0.70;;;25.10;54.80;;;;;;5052374;28;20044;-51
2021/09/26 03:25:18;;;;;;;0.63;0.60;;;25.10;54.80;;;;;;5053103;28;20068;-52
2021/09/26 03:27:46;;;;;;;0.77;0.50;;;25.10;54.80;;;;;;5050662;28;20051;-49
2021/09/26 03:30:14;;;;;;;0.77;0.52;;;25.20;54.90;;;;;;5061413;28;20044;-51
2021/09/26 03:32:41;;;;;;;0.77;0.70;;;25.10;54.80;;;;;;5055128;28;20045;-49
2021/09/26 03:35:11;;;;;;;0.40;0.40;;;25.10;54.80;;;;;;5060061;28;20051;-50
2021/09/26 03:37:38;;;;;;;0.98;0.55;;;25.10;54.80;;;;;;5065883;28;20051;-48
2021/09/26 03:40:08;;;;;;;0.80;0.80;;;25.10;54.80;;;;;;5059113;28;20041;-49
2021/09/26 03:42:37;;;;;;;0.55;0.55;;;25.10;54.80;;;;;;5066922;28;20127;-51
2021/09/26 03:45:06;;;;;;;0.75;0.57;;;25.10;54.80;;;;;;5056068;28;20545;-50
2021/09/26 03:47:33;;;;;;;0.60;0.60;;;25.10;54.80;;;;;;5058159;28;20095;-51
2021/09/26 03:50:00;;;;;;;0.68;0.50;;;25.10;55.40;;;;;;5054792;28;20044;-50
2021/09/26 03:52:27;;;;;;;5.05;0.80;;;25.10;54.90;;;;;;5052271;28;20048;-52
2021/09/26 03:54:55;;;;;;;0.60;0.60;;;25.00;55.40;;;;;;5051668;28;20626;-51
2021/09/26 03:57:22;;;;;;;0.40;0.30;;;25.10;54.80;;;;;;5051724;28;20048;-49
2021/09/26 03:59:50;;;;;;;0.50;0.45;;;25.10;54.90;;;;;;5058372;28;20044;-51
2021/09/26 04:02:17;;;;;;;0.73;0.43;;;25.10;54.90;;;;;;5060103;28;20048;-50
2021/09/26 04:04:44;;;;;;;0.50;0.40;;;25.00;54.80;;;;;;5052906;28;20513;-48
2021/09/26 04:07:11;;;;;;;0.65;0.65;;;25.00;54.80;;;;;;5051394;28;20519;-50
2021/09/26 04:09:38;;;;;;;0.85;0.50;;;25.00;54.80;;;;;;5065939;28;20040;-51
2021/09/26 04:12:06;;;;;;;0.63;0.57;;;25.00;54.80;;;;;;5053349;28;20064;-51
2021/09/26 04:14:33;;;;;;;1.50;0.40;;;25.00;54.80;;;;;;5060356;28;20381;-53
2021/09/26 04:17:01;;;;;;;2.05;0.40;;;25.10;54.90;;;;;;5061215;28;20052;-48
2021/09/26 04:19:28;;;;;;;0.80;0.77;;;25.00;54.80;;;;;;5052745;28;20052;-50
2021/09/26 04:21:55;;;;;;;1.10;0.47;;;25.00;54.80;;;;;;5048660;28;20048;-53
2021/09/26 04:24:22;;;;;;;0.88;0.65;;;25.00;54.90;;;;;;5067166;28;20568;-50
2021/09/26 04:26:49;;;;;;;1.60;0.50;;;25.00;54.80;;;;;;5051689;28;20064;-50
2021/09/26 04:29:16;;;;;;;0.43;0.40;;;25.00;54.80;;;;;;5060187;28;20047;-53
2021/09/26 04:31:43;;;;;;;0.65;0.65;;;25.00;54.90;;;;;;5062690;28;20049;-49
2021/09/26 04:34:12;;;;;;;1.02;0.30;;;25.00;54.90;;;;;;5058687;28;20044;-48
2021/09/26 04:36:39;;;;;;;0.75;0.30;;;25.00;54.90;;;;;;5067549;28;20050;-50
2021/09/26 04:39:06;;;;;;;0.50;0.22;;;25.00;54.90;;;;;;5054028;28;20041;-49
2021/09/26 04:41:33;;;;;;;1.10;0.32;;;25.00;54.90;;;;;;5056264;28;20045;-48
2021/09/26 04:44:00;;;;;;;0.40;0.40;;;25.00;54.90;;;;;;5052201;28;20045;-50
2021/09/26 04:46:27;;;;;;;0.82;0.55;;;25.00;54.90;;;;;;5068173;28;20067;-48
2021/09/26 04:48:54;;;;;;;1.08;0.60;;;25.00;54.90;;;;;;5049889;28;20068;-51
2021/09/26 04:51:23;;;;;;;0.57;0.35;;;25.00;54.90;;;;;;5067970;28;20049;-50
2021/09/26 04:53:50;;;;;;;0.30;0.30;;;25.00;54.90;;;;;;5062107;28;20040;-48
2021/09/26 04:56:17;;;;;;;0.50;0.50;;;25.00;54.90;;;;;;5058071;28;20120;-50
2021/09/26 04:58:44;;;;;;;0.57;0.57;;;25.00;55.00;;;;;;5059019;28;20045;-51
2021/09/26 05:01:12;;;;;;;0.32;0.30;;;25.00;55.00;;;;;;5066211;28;20045;-51
2021/09/26 05:03:39;;;;;;;0.47;0.47;;;25.00;55.00;;;;;;5054510;28;20044;-50
2021/09/26 05:06:06;;;;;;;1.00;0.52;;;25.00;55.00;;;;;;5064912;28;20428;-52
2021/09/26 05:08:35;;;;;;;0.95;0.50;;;25.00;55.00;;;;;;5056045;28;20067;-49
2021/09/26 05:11:02;;;;;;;1.83;0.77;;;24.90;55.00;;;;;;5052171;28;20037;-53
2021/09/26 05:13:29;;;;;;;0.65;0.65;;;24.90;55.00;;;;;;5051299;28;20045;-48
2021/09/26 05:15:56;;;;;;;1.10;0.85;;;24.90;55.00;;;;;;5066937;28;20052;-51
2021/09/26 05:18:23;;;;;;;2.30;0.93;;;25.00;55.00;;;;;;5062609;28;20056;-51
2021/09/26 05:20:52;;;;;;;1.45;0.85;;;24.90;55.00;;;;;;5063337;28;20055;-48
2021/09/26 05:23:20;;;;;;;0.68;0.65;;;25.00;55.00;;;;;;5056735;28;20047;-48
2021/09/26 05:25:48;;;;;;;0.95;0.35;;;25.00;55.10;;;;;;5051572;28;20643;-48
2021/09/26 05:28:16;;;;;;;0.85;0.40;;;24.90;55.00;;;;;;5048868;28;20041;-50
2021/09/26 05:30:43;;;;;;;2.72;0.75;;;24.90;55.10;;;;;;5066925;28;20048;-49
2021/09/26 05:33:11;;;;;;;0.70;0.40;;;24.90;55.00;;;;;;5059004;28;20072;-48
2021/09/26 05:35:38;;;;;;;0.75;0.65;;;24.90;55.10;;;;;;5051640;28;20048;-48
2021/09/26 05:38:05;;;;;;;0.95;0.95;;;24.90;55.10;;;;;;5051183;28;20132;-52
2021/09/26 05:40:32;;;;;;;0.50;0.35;;;25.00;55.10;;;;;;5050653;28;20048;-47
2021/09/26 05:43:01;;;;;;;1.10;0.70;;;24.90;55.10;;;;;;5047880;28;20049;-51
2021/09/26 05:45:28;;;;;;;3.30;0.55;;;24.90;55.10;;;;;;5052540;28;20414;-52
2021/09/26 05:47:55;;;;;;;0.55;0.30;;;24.90;55.10;;;;;;5049236;28;20036;-49
2021/09/26 05:50:22;;;;;;;1.00;0.63;;;24.90;55.10;;;;;;5055276;28;20094;-49
2021/09/26 05:52:49;;;;;;;0.47;0.47;;;24.90;55.10;;;;;;5057183;28;20068;-50
2021/09/26 05:55:16;;;;;;;0.80;0.60;;;24.90;55.10;;;;;;5048029;28;20041;-52
2021/09/26 05:57:43;;;;;;;1.75;0.73;;;24.90;55.10;;;;;;5050559;28;20132;-49
2021/09/26 06:00:13;;;;;;;2.53;0.57;;;24.90;55.10;;;;;;5061121;28;20055;-49
2021/09/26 06:02:40;;;;;;;0.60;0.60;;;24.90;55.10;;;;;;5053739;28;20044;-48
2021/09/26 06:05:10;;;;;;;0.85;0.75;;;24.90;55.70;;;;;;5051611;28;20037;-52
2021/09/26 06:07:38;;;;;;;1.45;1.38;;;24.90;55.70;;;;;;5054637;28;20056;-50
2021/09/26 06:10:06;;;;;;;1.25;1.15;;;24.90;55.10;;;;;;5049693;28;20036;-50
2021/09/26 06:12:34;;;;;;;0.63;0.63;;;25.00;55.20;;;;;;5063703;28;20048;-49
2021/09/26 06:15:03;;;;;;;1.58;1.15;;;24.90;55.10;;;;;;5051310;28;20065;-48
2021/09/26 06:17:31;;;;;;;0.38;0.38;;;24.90;55.10;;;;;;5061060;28;20044;-50
2021/09/26 06:19:59;;;;;;;2.45;0.75;;;24.90;55.10;;;;;;5062715;28;20048;-53
2021/09/26 06:22:26;;;;;;;0.52;0.43;;;24.90;55.10;;;;;;5062540;28;20040;-48
2021/09/26 06:24:56;;;;;;;0.60;0.60;;;24.90;55.10;;;;;;5050999;28;20045;-49
2021/09/26 06:27:23;;;;;;;0.90;0.47;;;25.00;55.20;;;;;;5048789;28;20094;-51
2021/09/26 06:29:50;;;;;;;0.80;0.80;;;25.00;55.20;;;;;;5050138;28;20068;-50
2021/09/26 06:32:18;;;;;;;1.17;0.50;;;24.90;55.20;;;;;;5053438;28;20078;-54
2021/09/26 06:34:46;;;;;;;0.47;0.47;;;25.00;55.20;;;;;;5060922;28;20084;-48
2021/09/26 06:37:13;;;;;;;3.17;0.80;;;25.00;55.20;;;;;;5049334;28;20059;-52
2021/09/26 06:39:40;;;;;;;1.52;0.75;;;25.00;55.20;;;;;;5049762;28;20041;-52
2021/09/26 06:42:07;;;;;;;2.33;0.60;;;25.00;55.20;;;;;;5051412;28;20045;-48
2021/09/26 06:44:35;;;;;;;1.75;0.95;;;25.00;55.30;;;;;;5049401;28;20072;-49
2021/09/26 06:47:02;;;;;;;0.60;0.40;;;25.00;55.30;;;;;;5036768;28;20592;-52
2021/09/26 06:49:29;;;;;;;0.45;0.45;;;25.00;55.20;;;;;;5051347;28;20164;-52
2021/09/26 06:51:57;;;;;;;0.90;0.90;;;25.00;55.20;;;;;;5051780;28;20524;-49
2021/09/26 06:54:24;;;;;;;0.80;0.65;;;25.00;55.20;;;;;;5071179;28;20047;-48
2021/09/26 06:56:51;;;;;;;1.55;0.60;;;25.00;55.20;;;;;;5054921;28;20037;-50
2021/09/26 06:59:18;;;;;;;0.65;0.47;;;25.00;55.20;;;;;;5055091;28;20115;-53
2021/09/26 07:01:45;;;;;;;0.68;0.68;;;25.00;55.20;;;;;;5055443;28;20049;-49
2021/09/26 07:04:12;;;;;;;0.47;0.47;;;25.00;55.20;;;;;;5064089;28;20041;-51
2021/09/26 07:06:39;;;;;;;1.60;0.60;;;25.00;55.20;;;;;;5066913;28;20052;-52
2021/09/26 07:09:08;;;;;;;0.65;0.65;;;25.00;55.20;;;;;;5055033;28;20067;-51
2021/09/26 07:11:34;;;;;;;0.98;0.63;;;25.00;55.20;;;;;;5055623;28;20045;-53
2021/09/26 07:14:01;;;;;;;1.95;1.50;;;25.00;55.20;;;;;;5058119;28;20049;-52
2021/09/26 07:16:29;;;;;;;1.27;0.43;;;25.00;55.20;;;;;;5054580;28;20049;-49
2021/09/26 07:18:56;;;;;;;4.75;1.27;;;25.10;55.80;;;;;;5051365;28;21834;-48
2021/09/26 07:21:23;;;;;;;0.93;0.77;;;25.10;55.20;;;;;;5065959;28;20048;-51
2021/09/26 07:23:51;;;;;;;0.55;0.55;;;25.10;55.20;;;;;;5053951;28;20049;-49
2021/09/26 07:26:19;;;;;;;1.90;0.60;;;25.10;55.20;;;;;;5055094;28;20521;-50
2021/09/26 07:28:46;;;;;;;1.20;1.10;;;25.10;55.20;;;;;;5054295;28;20516;-51
2021/09/26 07:31:14;;;;;;;1.42;0.68;;;25.10;55.20;;;;;;5064481;28;20131;-52
2021/09/26 07:33:41;;;;;;;1.92;0.63;;;25.10;55.10;;;;;;5053182;28;20049;-49
2021/09/26 07:36:09;;;;;;;2.15;1.08;;;25.10;55.10;;;;;;5059516;28;20056;-52
2021/09/26 07:38:36;;;;;;;2.42;0.47;;;25.20;55.20;;;;;;5056200;28;20044;-49
2021/09/26 07:41:03;;;;;;;1.13;0.90;;;25.20;55.20;;;;;;5054269;28;20054;-50
2021/09/26 07:43:31;;;;;;;1.23;1.13;;;25.20;55.20;;;;;;5052418;28;20045;-48
2021/09/26 07:45:58;;;;;;;1.50;0.45;;;25.20;55.20;;;;;;5057259;28;20045;-50
2021/09/26 07:48:25;;;;;;;1.77;1.13;;;25.20;55.20;;;;;;5055091;28;20048;-49
2021/09/26 07:50:52;;;;;;;1.15;0.68;;;25.20;55.20;;;;;;5066706;28;20048;-52
2021/09/26 07:53:21;;;;;;;1.15;0.95;;;25.20;55.20;;;;;;5063220;28;20098;-49
2021/09/26 07:55:50;;;;;;;1.08;1.00;;;25.20;55.20;;;;;;5062695;28;20119;-49
2021/09/26 07:58:18;;;;;;;5.60;0.60;;;25.20;55.20;;;;;;5051852;28;20121;-50
2021/09/26 08:00:46;;;;;;;0.55;0.50;;;25.20;55.20;;;;;;5063251;28;20052;-50
2021/09/26 08:03:13;;;;;;;1.30;0.60;;;25.20;55.20;;;;;;5056876;28;20107;-51
2021/09/26 08:05:40;;;;;;;1.20;0.90;;;25.20;55.10;;;;;;5060826;28;20045;-49
2021/09/26 08:08:07;;;;;;;2.05;1.20;;;25.20;55.10;;;;;;5059134;28;20055;-53
2021/09/26 08:10:34;;;;;;;0.98;0.60;;;25.20;55.10;;;;;;5056888;28;20048;-49
2021/09/26 08:13:02;;;;;;;0.82;0.70;;;25.20;55.10;;;;;;5048923;28;20056;-52
2021/09/26 08:15:29;;;;;;;2.92;0.98;;;25.30;55.20;;;;;;5054649;28;20040;-51
2021/09/26 08:17:57;;;;;;;3.35;0.80;;;25.20;55.10;;;;;;5051657;28;20053;-52
2021/09/26 08:20:25;;;;;;;1.60;1.08;;;25.30;55.10;;;;;;5056988;28;20040;-51
2021/09/26 08:22:52;;;;;;;1.20;1.20;;;25.20;55.10;;;;;;5056750;28;20051;-52
2021/09/26 08:25:22;;;;;;;1.15;0.60;;;25.30;55.10;;;;;;5065867;28;20075;-50
2021/09/26 08:27:50;;;;;;;0.77;0.60;;;25.30;55.10;;;;;;5049370;28;20513;-51
2021/09/26 08:30:19;;;;;;;1.30;0.93;;;25.30;55.10;;;;;;5054357;28;20048;-50
2021/09/26 08:32:47;;;;;;;1.95;0.60;;;25.30;55.10;;;;;;5051464;28;20098;-53
2021/09/26 08:35:17;;;;;;;2.88;0.80;;;25.30;55.10;;;;;;5051318;28;20059;-51
2021/09/26 08:37:44;;;;;;;3.35;0.55;;;25.30;55.00;;;;;;5051124;28;20048;-51
2021/09/26 08:40:12;;;;;;;0.40;0.40;;;25.30;55.00;;;;;;5051629;28;20040;-53
2021/09/26 08:42:41;;;;;;;2.92;1.02;;;25.30;55.00;;;;;;5049407;28;20056;-50
2021/09/26 08:45:12;;;;;;;0.73;0.70;;;25.30;55.00;;;;;;5053110;28;20520;-53
2021/09/26 08:47:40;;;;;;;1.00;0.98;;;25.30;55.00;;;;;;5053884;28;20186;-52
2021/09/26 08:50:10;;;;;;;0.80;0.70;;;25.30;54.90;;;;;;5052008;28;20064;-50
2021/09/26 08:52:41;;;;;;;1.35;1.25;;;25.30;54.90;;;;;;5059840;28;20047;-50
2021/09/26 08:55:09;;;;;;;1.63;0.85;;;25.30;54.90;;;;;;5053504;28;20039;-52
2021/09/26 08:57:37;;;;;;;1.15;1.15;;;25.40;55.10;;;;;;5081659;28;20037;-54
2021/09/26 09:00:05;;;;;;;2.20;0.88;;;25.40;55.10;;;;;;5052151;28;20052;-62
2021/09/26 09:02:32;;;;;;;2.35;1.27;;;25.40;54.80;;;;;;5053277;28;20048;-51
2021/09/26 09:04:59;;;;;;;4.88;2.33;;;25.40;54.70;;;;;;5056862;28;20041;-51
2021/09/26 09:07:26;;;;;;;5.80;1.40;;;25.40;54.90;;;;;;5051076;28;20047;-50
2021/09/26 09:09:57;;;;;;;4.22;1.77;;;25.40;54.90;;;;;;5048583;28;20056;-55
2021/09/26 09:12:26;;;;;;;4.75;1.50;;;25.50;55.00;;;;;;5052575;28;20045;-56
2021/09/26 09:14:55;;;;;;;3.75;1.30;;;25.50;54.70;;;;;;5051357;28;20131;-48
2021/09/26 09:17:27;;;;;;;4.45;1.63;;;25.40;54.60;;;;;;5051535;28;20401;-48
2021/09/26 09:20:19;;;;;;;4.60;1.70;;;25.40;54.80;;;;;;5059466;28;20047;-49
2021/09/26 09:22:48;;;;;;;2.78;1.60;;;25.40;54.90;;;;;;5055628;28;20666;-49
2021/09/26 09:25:36;;;;;;;3.08;1.35;;;25.40;54.90;;;;;;5050323;28;20072;-51
2021/09/26 09:28:04;;;;;;;9.02;1.50;;;25.50;55.00;;;;;;5067039;28;20033;-49
2021/09/26 09:30:32;;;;;;;10.18;2.53;;;25.50;55.10;;;;;;5048763;28;20037;-51
2021/09/26 09:33:00;;;;;;;9.75;1.77;;;25.50;55.00;;;;;;5050843;28;20071;-51
2021/09/26 09:35:29;;;;;;;7.95;2.72;;;25.60;55.10;;;;;;5050154;28;20040;-48
2021/09/26 09:37:57;;;;;;;8.05;1.65;;;25.60;55.00;;;;;;5053647;28;20052;-51
2021/09/26 09:40:24;;;;;;;5.15;1.75;;;25.70;54.90;;;;;;5050150;28;20029;-53
2021/09/26 09:42:54;;;;;;;5.78;1.67;;;25.70;54.80;;;;;;5049811;28;20052;-52
2021/09/26 09:45:25;;;;;;;3.17;1.00;;;25.70;54.70;;;;;;5052890;28;20478;-48
2021/09/26 09:47:57;;;;;;;2.65;1.42;;;25.80;54.70;;;;;;5059995;28;20066;-49
2021/09/26 09:50:29;;;;;;;3.80;0.88;;;25.80;54.60;;;;;;5056241;28;20037;-49
2021/09/26 09:52:56;;;;;;;3.67;1.65;;;25.80;54.50;;;;;;5055734;28;20067;-51
2021/09/26 09:55:27;;;;;;;8.25;2.30;;;25.80;54.40;;;;;;5049159;28;20037;-48
2021/09/26 09:58:10;;;;;;;1.67;0.77;;;25.90;54.40;;;;;;5064468;28;20048;-50
2021/09/26 10:00:49;;;;;;;4.20;1.63;;;25.90;54.30;;;;;;5063794;28;20408;-49
2021/09/26 10:03:40;;;;;;;1.63;1.20;;;25.90;54.20;;;;;;5055458;28;20048;-49
2021/09/26 10:06:26;;;;;;;3.03;2.25;;;25.90;54.10;;;;;;5061687;28;20067;-49
2021/09/26 10:08:54;;;;;;;3.13;1.33;;;26.00;54.20;;;;;;5059777;28;20055;-49
2021/09/26 10:11:22;;;;;;;2.20;1.35;;;26.00;54.20;;;;;;5060291;28;20036;-50
2021/09/26 10:13:50;;;;;;;1.27;1.05;;;26.00;54.10;;;;;;5059882;28;20045;-50
2021/09/26 10:16:18;;;;;;;1.73;1.23;;;26.00;54.00;;;;;;5064649;28;20043;-53
2021/09/26 10:18:45;;;;;;;1.65;1.10;;;26.00;53.90;;;;;;5073140;28;20043;-51
2021/09/26 10:21:13;;;;;;;4.60;1.20;;;26.00;53.90;;;;;;5062713;28;20047;-51
2021/09/26 10:23:45;;;;;;;6.13;1.55;;;26.00;53.80;;;;;;5053872;28;20041;-51
2021/09/26 10:26:13;;;;;;;1.67;1.42;;;26.10;53.80;;;;;;5055973;28;20041;-51
2021/09/26 10:28:42;;;;;;;1.92;1.70;;;26.10;53.80;;;;;;5048015;28;20037;-52
2021/09/26 10:31:13;;;;;;;2.60;2.03;;;26.10;53.70;;;;;;5065754;28;20053;-51
2021/09/26 10:33:42;;;;;;;5.35;2.03;;;26.10;53.70;;;;;;5057228;28;20032;-51
2021/09/26 10:36:10;;;;;;;3.97;2.53;;;26.10;53.60;;;;;;5047547;28;20080;-50
2021/09/26 10:38:39;;;;;;;1.60;0.68;;;26.10;53.60;;;;;;5047204;28;20111;-51
2021/09/26 10:41:08;;;;;;;1.60;1.50;;;26.10;53.60;;;;;;5050067;28;20052;-52
2021/09/26 10:43:36;;;;;;;2.40;1.05;;;26.20;53.60;;;;;;5047757;28;20033;-49
2021/09/26 10:46:19;;;;;;;3.35;1.45;;;26.20;53.50;;;;;;5069485;28;20504;-47
2021/09/26 10:49:01;;;;;;;1.83;0.98;;;26.20;53.50;;;;;;5046437;28;20033;-49
2021/09/26 10:51:47;;;;;;;2.63;1.85;;;26.20;53.40;;;;;;5052074;28;20048;-54
2021/09/26 10:54:30;;;;;;;2.00;1.90;;;26.20;53.40;;;;;;5062454;28;20136;-51
2021/09/26 10:57:20;;;;;;;0.90;0.90;;;26.20;53.40;;;;;;5059906;28;20024;-52
2021/09/26 10:59:48;;;;;;;2.53;1.75;;;26.20;53.30;;;;;;5056849;28;20119;-49
2021/09/26 11:02:40;;;;;;;1.55;1.10;;;26.20;53.40;;;;;;5058821;28;20040;-50
2021/09/26 11:05:23;;;;;;;2.42;1.65;;;26.30;53.30;;;;;;5059466;28;20040;-50
2021/09/26 11:07:51;;;;;;;7.00;0.80;;;26.30;53.30;;;;;;5058330;28;20079;-53
2021/09/26 11:10:18;;;;;;;1.52;1.08;;;26.30;53.20;;;;;;5047266;28;20045;-48
2021/09/26 11:12:48;;;;;;;1.25;0.95;;;26.30;53.20;;;;;;5062698;28;20041;-50
2021/09/26 11:15:17;;;;;;;2.88;1.30;;;26.30;53.10;;;;;;5047015;28;20044;-48
2021/09/26 11:17:47;;;;;;;2.25;0.80;;;26.30;53.10;;;;;;5056235;28;20090;-50
2021/09/26 11:20:42;;;;;;;1.52;1.08;;;26.40;53.10;;;;;;5058752;28;20043;-49
2021/09/26 11:23:39;;;;;;;0.80;0.65;;;26.40;53.00;;;;;;5057368;28;20049;-49
2021/09/26 11:26:07;;;;;;;1.10;0.90;;;26.40;52.90;;;;;;5007233;28;20049;-48
2021/09/26 11:28:36;;;;;;;1.08;1.08;;;26.40;53.00;;;;;;5007227;28;20042;-48
2021/09/26 11:31:03;;;;;;;1.67;1.02;;;26.40;52.90;;;;;;5005564;28;20422;-49
2021/09/26 11:33:57;;;;;;;3.58;1.50;;;26.40;52.90;;;;;;5019934;28;20041;-49
2021/09/26 11:36:26;;;;;;;1.73;0.77;;;26.50;52.80;;;;;;5013457;28;20517;-49
2021/09/26 11:38:53;;;;;;;1.05;1.05;;;26.50;52.80;;;;;;5018860;28;20045;-48
2021/09/26 11:41:38;;;;;;;1.30;1.20;;;26.40;53.30;;;;;;5019832;28;20037;-48
2021/09/26 11:44:07;;;;;;;2.33;1.10;;;26.50;52.60;;;;;;5017354;28;20046;-48
2021/09/26 11:46:34;;;;;;;2.08;1.20;;;26.50;52.60;;;;;;5009261;28;20763;-49
2021/09/26 11:49:06;;;;;;;0.90;0.80;;;26.50;52.60;;;;;;5024669;28;20056;-48
2021/09/26 11:51:34;;;;;;;1.77;0.80;;;26.50;52.50;;;;;;5023709;28;20045;-53
2021/09/26 11:54:02;;;;;;;3.55;1.13;;;26.60;52.60;;;;;;5021272;28;20057;-50
2021/09/26 11:56:31;;;;;;;2.90;1.10;;;26.60;52.50;;;;;;5014616;28;20252;-52
2021/09/26 11:59:02;;;;;;;1.50;1.13;;;26.60;52.50;;;;;;5010962;28;20085;-51
2021/09/26 12:01:35;;;;;;;0.47;0.40;;;26.60;52.40;;;;;;5064324;28;20048;-50
2021/09/26 12:04:16;;;;;;;2.13;0.82;;;26.60;52.40;;;;;;5060440;28;20041;-49
2021/09/26 12:06:46;;;;;;;0.70;0.70;;;26.60;52.30;;;;;;5066198;28;20048;-48
2021/09/26 12:09:32;;;;;;;1.17;0.93;;;26.60;52.40;;;;;;5065885;28;20044;-48
2021/09/26 12:11:59;;;;;;;1.27;0.93;;;26.60;52.30;;;;;;5061663;28;20079;-50
2021/09/26 12:14:30;;;;;;;1.73;0.35;;;26.70;52.40;;;;;;5058199;28;20047;-51
2021/09/26 12:16:58;;;;;;;2.60;1.00;;;26.70;52.30;;;;;;5053778;28;20059;-49
2021/09/26 12:19:27;;;;;;;0.90;0.82;;;26.60;52.20;;;;;;5050735;28;20512;-48
2021/09/26 12:22:12;;;;;;;0.80;0.80;;;26.70;52.30;;;;;;5065384;28;20416;-48
2021/09/26 12:24:45;;;;;;;0.82;0.40;;;26.70;52.20;;;;;;5049093;28;20049;-48
2021/09/26 12:27:19;;;;;;;0.70;0.70;;;26.70;52.20;;;;;;5064490;28;20059;-50
2021/09/26 12:29:52;;;;;;;0.40;0.40;;;26.70;52.20;;;;;;5062094;28;20040;-51
2021/09/26 12:32:23;;;;;;;0.57;0.57;;;26.70;52.20;;;;;;5061945;28;20048;-49
2021/09/26 12:34:51;;;;;;;0.60;0.60;;;26.70;52.20;;;;;;5067234;28;20044;-49
2021/09/26 12:37:19;;;;;;;1.90;1.25;;;26.70;52.80;;;;;;5066682;28;20036;-49
2021/09/26 12:39:51;;;;;;;0.63;0.32;;;26.80;52.20;;;;;;5049417;28;20580;-50
2021/09/26 12:42:20;;;;;;;1.02;0.57;;;26.70;52.20;;;;;;5054334;28;20422;-49
2021/09/26 12:44:47;;;;;;;1.58;1.00;;;26.70;52.20;;;;;;5052382;28;20048;-54
2021/09/26 12:47:18;;;;;;;0.95;0.50;;;26.70;52.10;;;;;;5051436;28;20094;-49
2021/09/26 12:49:47;;;;;;;2.35;0.90;;;26.70;52.10;;;;;;5052077;28;20041;-50
2021/09/26 12:52:18;;;;;;;0.95;0.85;;;26.80;52.20;;;;;;5050414;28;20052;-52
2021/09/26 12:54:53;;;;;;;0.60;0.60;;;26.70;52.80;;;;;;5074500;28;20040;-51
2021/09/26 12:57:24;;;;;;;1.40;0.45;;;26.70;52.10;;;;;;5053383;28;20041;-50
2021/09/26 12:59:53;;;;;;;1.98;0.65;;;26.70;52.20;;;;;;5053672;28;20498;-48
2021/09/26 13:02:23;;;;;;;0.40;0.40;;;26.70;52.20;;;;;;5052499;28;20056;-49